Latest Weather Observations for Cunderdin Airport

IDW60801

Issued at 4:44 pm WST Monday 10 August 2020 (issued every 10 minutes, with the page automatically refreshed every 10 minutes)

About weather observations | Map of weather stations | Latest weather observations for WA | Other Formats
Station Details ID: 010286 Name: CUNDERDIN AIRFIELD Lat: -31.62 Lon: 117.22 Height: 216.7 m
Data from the previous 72 hours. | See also: Recent months at Cunderdin Airport
Date/Time
WST
Temp
°C
App
Temp
°C
Dew
Point
°C
Rel
Hum
%
Delta-T
°C
Wind Press
QNH
hPa
Press
MSL
hPa
Rain since
9am
mm
Dir  Spd
km/h
Gust
km/h
Spd
kts
Gust
kts
10/04:30pm 14.8 10.3 12.5 86 1.3 - 28 37 15 20 1002.1 1002.1 0.4
10/04:00pm 14.4 8.4 12.1 86 1.3 - 35 44 19 24 1002.0 1002.0 0.4
10/03:30pm 15.3 9.6 11.9 80 1.9 - 33 44 18 24 1001.6 1001.6 0.4
10/03:00pm 16.3 9.9 11.9 75 2.4 - 37 48 20 26 1001.3 1001.3 0.4
10/02:30pm 16.2 11.1 11.8 75 2.4 - 30 41 16 22 1001.2 1001.2 0.4
10/02:00pm 16.8 12.4 12.9 78 2.2 - 28 35 15 19 1000.9 1000.9 0.4
10/01:30pm 15.0 11.0 11.8 81 1.7 - 24 32 13 17 1001.0 1001.0 0.4
10/01:00pm 14.6 10.2 11.7 83 1.6 - 26 33 14 18 1001.6 1001.6 0.4
10/12:30pm 16.3 12.7 13.0 81 1.9 ESE 24 32 13 17 1001.8 1001.8 0.4
10/12:00pm 15.3 11.2 12.6 84 1.5 ESE 26 35 14 19 1002.2 1002.2 0.4
10/11:30am 14.5 10.0 12.7 89 1.0 ESE 28 39 15 21 1002.4 1002.4 0.4
10/11:00am 12.7 7.8 11.4 92 0.7 ESE 28 39 15 21 1002.6 1002.6 0.4
10/10:30am 12.4 8.6 11.3 93 0.6 ESE 22 32 12 17 1002.8 1002.8 0.4
10/10:00am 11.6 6.8 10.3 92 0.7 ESE 26 33 14 18 1002.7 1002.7 0.4
10/09:30am 10.9 5.6 9.8 93 0.6 ESE 28 39 15 21 1002.5 1002.5 0.4
10/09:00am 11.2 5.4 9.6 90 0.8 ESE 30 37 16 20 1002.3 1002.3 12.8
10/08:30am 10.9 5.6 9.8 93 0.6 ESE 28 41 15 22 1002.1 1002.1 12.8
10/08:00am 10.6 6.0 9.5 93 0.6 SE 24 32 13 17 1001.8 1001.8 12.6
10/07:30am 10.1 6.7 9.3 95 0.4 ESE 17 26 9 14 1002.0 1002.0 12.6
10/07:00am 9.9 8.4 9.3 96 0.3 ESE 7 15 4 8 1001.3 1001.3 12.6
10/06:30am 10.3 6.4 9.4 94 0.5 ESE 20 30 11 16 1001.6 1001.6 11.8
10/06:00am 10.2 5.4 9.0 92 0.6 ESE 24 32 13 17 1001.1 1001.1 11.6
10/05:30am 10.3 6.6 9.4 94 0.5 ESE 19 28 10 15 1001.1 1001.1 11.4
10/05:00am 10.5 5.1 9.4 93 0.6 ESE 28 39 15 21 1000.7 1000.7 11.2
10/04:30am 10.1 4.6 9.2 94 0.5 ESE 28 39 15 21 1001.0 1001.0 11.0
10/04:00am 10.1 5.4 9.3 95 0.4 ESE 24 32 13 17 1001.0 1001.0 10.0
10/03:30am 10.1 5.8 9.3 95 0.4 ESE 22 28 12 15 1000.8 1000.8 9.6
10/03:00am 10.2 5.5 9.3 94 0.5 ESE 24 32 13 17 1000.8 1000.8 8.0
10/02:30am 10.4 5.0 9.5 94 0.5 ESE 28 35 15 19 1000.6 1000.6 8.0
10/02:21am 10.4 4.6 9.5 94 0.5 ESE 30 37 16 20 1000.4 1000.4 7.8
10/02:03am 10.5 5.1 9.6 94 0.5 ESE 28 35 15 19 1000.4 1000.4 7.0
10/02:00am 10.6 4.8 9.5 93 0.6 ESE 30 35 16 19 1000.4 1000.4 6.6
10/01:30am 10.7 5.7 9.5 92 0.6 ESE 26 33 14 18 1000.3 1000.3 6.0
10/01:00am 10.8 5.0 9.4 91 0.7 ESE 30 39 16 21 1000.1 1000.1 5.8
10/12:30am 10.5 5.7 8.9 90 0.8 ESE 24 32 13 17 999.8 999.9 5.8
10/12:01am 10.6 5.1 9.0 90 0.8 ESE 28 46 15 25 1000.0 1000.0 5.8
10/12:00am 10.5 5.4 9.1 91 0.7 ESE 26 41 14 22 1000.1 1000.1 5.8
 
Date/Time
WST
Temp
°C
App
Temp
°C
Dew
Point
°C
Rel
Hum
%
Delta-T
°C
Wind Press
QNH
hPa
Press
MSL
hPa
Rain since
9am
mm
Dir  Spd
km/h
Gust
km/h
Spd
kts
Gust
kts
09/11:30pm 10.3 5.5 8.9 91 0.7 ESE 24 33 13 18 999.6 999.7 5.2
09/11:00pm 10.5 6.4 8.8 89 0.9 ESE 20 26 11 14 1000.0 1000.0 5.2
09/10:30pm 10.8 7.0 9.1 89 0.9 ESE 19 24 10 13 999.4 999.5 5.2
09/10:00pm 10.9 8.0 9.7 92 0.6 ESE 15 19 8 10 999.6 999.7 5.2
09/09:30pm 11.6 7.8 9.9 89 0.9 ESE 20 26 11 14 1000.4 1000.4 5.2
09/09:00pm 11.5 6.8 9.4 87 1.1 ESE 24 33 13 18 1000.5 1000.5 5.2
09/08:30pm 12.2 7.0 10.1 87 1.1 SE 28 33 15 18 999.8 999.9 5.2
09/08:00pm 12.3 8.1 11.0 92 0.7 SE 24 32 13 17 1000.1 1000.1 5.2
09/07:30pm 11.8 8.3 11.0 95 0.4 SE 20 26 11 14 999.8 999.9 5.2
09/07:00pm 11.5 8.2 10.9 96 0.3 SE 19 22 10 12 999.4 999.5 5.2
09/06:30pm 12.0 7.8 11.1 94 0.5 SE 24 32 13 17 999.5 999.6 5.2
09/06:00pm 12.1 7.5 11.0 93 0.6 SE 26 33 14 18 999.5 999.6 5.2
09/05:30pm 12.2 8.1 11.4 95 0.4 SE 24 32 13 17 999.6 999.7 5.2
09/05:00pm 12.4 7.1 11.3 93 0.6 SE 30 41 16 22 1000.1 1000.1 4.8
09/04:30pm 12.1 6.2 11.3 95 0.4 SE 33 44 18 24 999.0 999.0 4.6
09/04:00pm 12.0 5.7 11.2 95 0.4 SE 35 46 19 25 999.7 999.8 4.4
09/03:30pm 11.7 5.4 10.9 95 0.4 SE 35 46 19 25 1000.3 1000.3 4.0
09/03:08pm 11.9 3.4 10.6 92 0.7 SE 46 65 25 35 1000.8 1000.8 3.4
09/03:00pm 12.2 4.6 10.6 90 0.8 SE 41 52 22 28 1000.4 1000.4 3.2
09/02:30pm 12.0 2.7 10.4 90 0.8 SSE 50 69 27 37 1000.5 1000.5 3.2
09/02:06pm 12.1 3.6 10.7 91 0.7 SSE 46 70 25 38 1000.0 1000.0 3.2
09/02:00pm 12.3 4.0 11.4 94 0.5 SSE 46 59 25 32 1000.3 1000.3 3.2
09/01:35pm 11.4 0.7 9.7 89 0.9 SSE 56 85 30 46 1000.9 1000.9 2.2
09/01:30pm 11.9 1.6 9.8 87 1.1 SSE 54 72 29 39 1000.8 1000.8 2.2
09/01:00pm 12.4 2.5 9.6 83 1.4 SSE 52 70 28 38 1000.8 1000.8 2.2
09/12:31pm 11.4 3.6 9.8 90 0.8 SSE 41 59 22 32 1001.6 1001.6 2.0
09/12:30pm 11.5 3.3 9.8 89 0.9 SSE 43 59 23 32 1001.5 1001.5 2.0
09/12:00pm 11.6 2.9 10.0 90 0.8 SSE 46 65 25 35 1002.1 1002.1 1.2
09/11:58am 11.6 2.5 9.9 89 0.9 SSE 48 67 26 36 1002.1 1002.1 1.0
09/11:30am 12.2 0.2 9.8 85 1.2 SSE 63 89 34 48 1002.0 1002.0 0.4
09/11:09am 13.7 1.4 8.5 71 2.6 NE 63 89 34 48 1001.6 1001.6 0.0
09/11:08am 13.9 1.5 8.1 68 2.9 NNE 63 89 34 48 1001.7 1001.7 0.0
09/11:07am 14.0 2.0 8.0 67 3.0 NNE 61 89 33 48 1001.6 1001.6 0.0
09/11:06am 14.2 2.1 7.9 66 3.2 NNE 61 89 33 48 1001.6 1001.6 0.0
09/11:00am 14.5 2.9 6.8 60 3.8 N 57 76 31 41 1001.6 1001.6 0.0
09/10:30am 16.0 5.1 5.6 50 5.0 NNE 52 70 28 38 1001.6 1001.6 0.0
09/10:00am 15.1 4.2 5.6 53 4.6 NNE 52 70 28 38 1002.4 1002.4 0.0
09/09:30am 14.0 3.6 6.1 59 3.8 NNE 50 69 27 37 1002.7 1002.7 0.0
09/09:00am 12.9 3.8 6.7 66 3.0 NNE 44 67 24 36 1003.0 1003.0 1.8
09/08:53am 12.7 3.7 6.5 66 3.0 NE 43 61 23 33 1002.9 1002.9 1.8
09/08:30am 11.6 2.7 6.9 73 2.3 NE 43 57 23 31 1002.6 1002.6 1.8
09/08:24am 11.9 3.7 6.6 70 2.5 NE 39 57 21 31 1003.7 1003.8 1.8
09/08:00am 12.1 5.2 6.6 69 2.7 NE 32 43 17 23 1005.4 1005.4 1.8
09/07:30am 11.6 4.8 6.7 72 2.4 NE 32 44 17 24 1005.7 1005.7 1.8
09/07:00am 11.2 5.7 7.5 78 1.8 NE 26 35 14 19 1006.4 1006.4 1.8
09/06:30am 11.2 6.0 7.3 77 1.9 NE 24 33 13 18 1006.9 1006.9 1.6
09/06:00am 11.3 6.5 7.4 77 1.9 ENE 22 33 12 18 1006.1 1006.1 1.4
09/05:30am 11.6 6.7 7.1 74 2.2 NE 22 32 12 17 1006.4 1006.4 0.8
09/05:00am 12.4 6.2 6.0 65 3.1 NE 28 35 15 19 1006.4 1006.4 0.2
09/04:30am 12.7 6.3 5.4 61 3.4 NE 28 35 15 19 1006.1 1006.1 0.2
09/04:00am 12.8 6.8 5.2 60 3.6 NE 26 35 14 19 1006.2 1006.2 0.2
09/03:30am 13.4 6.8 4.3 54 4.2 NE 28 33 15 18 1006.6 1006.6 0.0
09/03:00am 13.4 7.2 4.3 54 4.2 NE 26 33 14 18 1007.6 1007.7 0.0
09/02:30am 14.7 7.3 1.9 42 5.7 NE 30 35 16 19 1008.3 1008.4 0.0
09/02:00am 15.4 7.2 0.4 36 6.5 NE 33 43 18 23 1008.5 1008.6 0.0
09/01:30am 15.7 6.7 -0.1 34 6.8 NE 37 48 20 26 1008.9 1009.0 0.0
09/01:00am 15.6 6.6 0.2 35 6.7 NE 37 50 20 27 1009.4 1009.5 0.0
09/12:30am 15.5 6.6 0.5 36 6.5 NE 37 48 20 26 1010.2 1010.2 0.0
09/12:00am 15.7 7.6 0.7 36 6.6 NE 33 43 18 23 1010.5 1010.5 0.0
 
Date/Time
WST
Temp
°C
App
Temp
°C
Dew
Point
°C
Rel
Hum
%
Delta-T
°C
Wind Press
QNH
hPa
Press
MSL
hPa
Rain since
9am
mm
Dir  Spd
km/h
Gust
km/h
Spd
kts
Gust
kts
08/11:30pm 15.2 7.4 1.4 39 6.1 NE 32 41 17 22 1010.7 1010.7 0.0
08/11:00pm 15.2 7.4 1.7 40 6.0 NE 32 39 17 21 1011.4 1011.5 0.0
08/10:30pm 15.5 8.1 1.6 39 6.2 NE 30 35 16 19 1012.0 1012.1 0.0
08/10:00pm 15.3 9.5 2.5 42 5.8 NE 22 30 12 16 1011.9 1012.0 0.0
08/09:30pm 15.2 9.5 2.7 43 5.7 NE 22 26 12 14 1012.2 1012.3 0.0
08/09:00pm 15.2 9.5 3.0 44 5.6 NE 22 32 12 17 1012.8 1012.9 0.0
08/08:30pm 14.6 9.6 3.7 48 5.0 ENE 19 24 10 13 1013.0 1013.1 0.0
08/08:00pm 13.5 9.4 4.4 54 4.2 ENE 15 19 8 10 1013.2 1013.3 0.0
08/07:30pm 13.9 9.8 4.5 53 4.4 ENE 15 17 8 9 1013.4 1013.5 0.0
08/07:00pm 14.1 10.0 4.4 52 4.5 ENE 15 17 8 9 1013.4 1013.5 0.0
08/06:30pm 14.4 9.9 4.4 51 4.7 ENE 17 20 9 11 1013.3 1013.4 0.0
08/06:00pm 15.7 11.6 4.1 46 5.4 ENE 15 19 8 10 1013.1 1013.2 0.0
08/05:30pm 17.1 11.9 3.8 41 6.3 ENE 20 26 11 14 1013.0 1013.1 0.0
08/05:00pm 18.8 12.9 3.8 37 7.2 NE 24 30 13 16 1012.9 1013.0 0.0
08/04:30pm 19.9 13.1 3.2 33 7.9 NE 28 39 15 21 1013.3 1013.4 0.0
08/04:00pm 19.6 12.9 3.7 35 7.6 NE 28 39 15 21 1013.3 1013.4 0.0
08/03:30pm 20.5 13.0 3.7 33 8.1 NE 32 41 17 22 1013.7 1013.8 0.0
08/03:00pm 20.7 13.1 3.9 33 8.1 NE 33 46 18 25 1013.8 1013.9 0.0
08/02:30pm 20.7 13.6 3.4 32 8.3 NE 30 39 16 21 1014.6 1014.6 0.0
08/02:00pm 19.9 13.0 4.4 36 7.5 NE 30 37 16 20 1015.3 1015.4 0.0
08/01:30pm 20.1 13.2 4.6 36 7.6 NE 30 39 16 21 1015.8 1015.9 0.0
08/01:00pm 18.4 10.7 3.5 37 7.0 NE 33 41 18 22 1016.4 1016.5 0.0
08/12:30pm 17.7 10.2 3.6 39 6.6 NNE 32 46 17 25 1017.3 1017.4 0.0
08/12:00pm 17.6 9.5 3.5 39 6.6 NE 35 44 19 24 1017.8 1017.9 0.0
08/11:30am 17.0 9.2 4.7 44 5.9 NE 35 44 19 24 1018.3 1018.4 0.0
08/11:00am 15.6 7.6 4.0 46 5.4 NE 35 44 19 24 1019.1 1019.3 0.0
08/10:30am 14.1 5.3 3.8 50 4.7 NE 39 50 21 27 1019.7 1019.8 0.0
08/10:00am 13.1 5.4 3.5 52 4.3 NE 33 46 18 25 1020.4 1020.5 0.0
08/09:30am 11.7 4.2 4.2 60 3.4 NE 33 43 18 23 1020.7 1020.8 0.0
08/09:00am 10.3 2.9 3.8 64 2.9 ENE 32 44 17 24 1020.8 1020.9 0.0
08/08:30am 9.0 2.4 4.0 71 2.2 ENE 28 35 15 19 1020.9 1021.0 0.0
08/08:00am 7.4 2.9 4.0 79 1.5 ENE 17 24 9 13 1021.1 1021.2 0.0
08/07:30am 6.0 1.3 3.3 83 1.1 ENE 17 22 9 12 1021.0 1021.1 0.0
08/07:00am 4.6 0.6 2.9 89 0.7 ENE 13 17 7 9 1021.0 1021.1 0.0
08/06:30am 4.3 0.3 2.7 89 0.7 E 13 15 7 8 1021.0 1021.1 0.0
08/06:00am 4.6 0.2 2.9 89 0.7 E 15 17 8 9 1020.8 1020.9 0.0
08/05:30am 4.6 0.2 2.9 89 0.7 E 15 17 8 9 1020.5 1020.6 0.0
08/05:00am 5.1 0.4 3.3 88 0.8 E 17 20 9 11 1020.6 1020.7 0.0
08/04:30am 5.1 0.4 3.3 88 0.8 E 17 19 9 10 1020.5 1020.6 0.0
08/04:00am 4.9 0.6 3.4 90 0.6 ENE 15 17 8 9 1020.9 1021.0 0.0
08/03:30am 3.0 -1.1 2.1 94 0.4 ENE 13 15 7 8 1021.3 1021.4 0.0
08/03:00am 4.1 0.2 3.4 95 0.3 ENE 13 13 7 7 1021.5 1021.6 0.0
08/02:30am 3.1 0.1 1.9 92 0.5 NE 7 11 4 6 1021.9 1022.0 0.0
08/02:00am 5.2 2.2 4.0 92 0.5 E 9 11 5 6 1021.7 1021.8 0.0
08/01:30am 3.5 -0.2 2.5 93 0.4 ENE 11 13 6 7 1021.7 1021.8 0.0
08/01:00am 5.7 3.0 3.5 86 0.9 E 7 9 4 5 1021.9 1022.0 0.0
08/12:30am 7.0 3.7 4.7 85 1.0 E 11 13 6 7 1021.9 1022.0 0.0
08/12:00am 8.1 5.6 4.7 79 1.5 E 7 11 4 6 1022.2 1022.3 0.0
 
Date/Time
WST
Temp
°C
App
Temp
°C
Dew
Point
°C
Rel
Hum
%
Delta-T
°C
Wind Press
QNH
hPa
Press
MSL
hPa
Rain since
9am
mm
Dir  Spd
km/h
Gust
km/h
Spd
kts
Gust
kts
07/11:30pm 9.6 6.0 5.2 74 2.0 E 13 15 7 8 1022.0 1022.1 0.0
07/11:00pm 9.8 5.9 5.4 74 2.0 E 15 17 8 9 1021.8 1021.9 0.0
07/10:30pm 10.0 6.5 5.6 74 2.0 E 13 19 7 10 1021.9 1022.0 0.0
07/10:00pm 10.1 6.7 5.9 75 2.0 E 13 17 7 9 1022.3 1022.4 0.0
07/09:30pm 10.1 6.7 6.1 76 1.9 E 13 17 7 9 1022.0 1022.1 0.0
07/09:00pm 10.1 7.1 6.1 76 1.9 E 11 17 6 9 1022.5 1022.6 0.0
07/08:30pm 10.2 6.9 6.2 76 1.9 E 13 15 7 8 1022.5 1022.6 0.0
07/08:00pm 9.7 7.2 6.4 80 1.5 E 9 11 5 6 1022.7 1022.8 0.0
07/07:30pm 10.2 7.2 6.2 76 1.9 ESE 11 17 6 9 1022.6 1022.7 0.0
07/07:00pm 10.7 7.3 5.9 72 2.2 ESE 13 17 7 9 1022.5 1022.6 0.0
07/06:30pm 11.1 8.1 5.8 70 2.5 E 11 15 6 8 1022.6 1022.7 0.0
07/06:00pm 11.5 7.7 5.6 67 2.8 E 15 19 8 10 1022.4 1022.5 0.0
07/05:30pm 12.0 7.7 5.4 64 3.1 E 17 20 9 11 1022.3 1022.4 0.0
07/05:00pm 12.5 8.2 5.2 61 3.4 E 17 20 9 11 1022.8 1023.0 0.0

Other formats

Comma delimited format used in spreadsheet applications
http://www.bom.gov.au/fwo/IDW60801/IDW60801.95625.axf

JavaScript Object Notation format (JSON) in row-major order
http://www.bom.gov.au/fwo/IDW60801/IDW60801.95625.json

Data quality

Most of these data are generated automatically and are frequently updated. Quality checks on data are not normally performed. It is possible for incorrect values to appear. Refer to information at About Latest Weather Observations and please check the disclaimer before using these data.